createdAt,value
2018-11-29T00:00:20.216Z,27.07
2018-11-29T00:02:48.684Z,32.03
2018-11-29T00:05:16.890Z,26.07
2018-11-29T00:07:45.061Z,28.00
2018-11-29T00:10:13.338Z,29.50
2018-11-29T00:12:41.567Z,28.83
2018-11-29T00:15:11.798Z,27.80
2018-11-29T00:17:40.064Z,30.43
2018-11-29T00:20:12.126Z,31.57
2018-11-29T00:22:40.505Z,30.70
2018-11-29T00:25:09.828Z,31.30
2018-11-29T00:27:38.083Z,37.57
2018-11-29T00:30:08.938Z,31.93
2018-11-29T00:32:37.138Z,28.17
2018-11-29T00:35:06.732Z,33.73
2018-11-29T00:37:34.999Z,31.00
2018-11-29T00:40:03.573Z,33.00
2018-11-29T00:42:31.812Z,34.13
2018-11-29T00:45:00.043Z,32.50
2018-11-29T00:47:28.252Z,35.30
2018-11-29T00:49:56.477Z,36.53
2018-11-29T00:52:24.651Z,32.50
2018-11-29T00:54:52.911Z,31.57
2018-11-29T00:57:21.151Z,30.77
2018-11-29T00:59:49.389Z,35.47
2018-11-29T01:02:17.666Z,31.23
2018-11-29T01:04:45.891Z,32.97
2018-11-29T01:07:14.098Z,35.87
2018-11-29T01:09:42.296Z,35.17
2018-11-29T01:12:10.470Z,35.27
2018-11-29T01:14:38.682Z,34.37
2018-11-29T01:17:06.932Z,36.63
2018-11-29T01:19:35.198Z,35.43
2018-11-29T01:22:03.421Z,33.60
2018-11-29T01:24:31.641Z,36.20
2018-11-29T01:27:00.669Z,35.37
2018-11-29T01:29:28.911Z,29.87
2018-11-29T01:31:57.089Z,36.27
2018-11-29T01:34:25.363Z,32.23
2018-11-29T01:36:53.656Z,34.83
2018-11-29T01:39:21.926Z,31.23
2018-11-29T01:41:50.202Z,30.07
2018-11-29T01:44:18.483Z,32.43
2018-11-29T01:46:46.689Z,31.03
2018-11-29T01:49:14.914Z,33.37
2018-11-29T01:51:43.190Z,32.63
2018-11-29T01:54:11.486Z,27.83
2018-11-29T01:56:39.746Z,28.00
2018-11-29T01:59:08.011Z,30.00
2018-11-29T02:01:36.304Z,32.83
2018-11-29T02:04:04.935Z,30.43
2018-11-29T02:06:33.180Z,30.87
2018-11-29T02:09:01.497Z,26.70
2018-11-29T02:11:29.742Z,29.47
2018-11-29T02:13:58.038Z,29.30
2018-11-29T02:16:26.331Z,28.57
2018-11-29T02:18:54.590Z,29.73
2018-11-29T02:21:22.821Z,27.80
2018-11-29T02:23:51.102Z,28.10
2018-11-29T02:26:19.574Z,27.53
2018-11-29T02:28:47.945Z,29.57
2018-11-29T02:31:16.287Z,32.37
2018-11-29T02:33:44.554Z,28.30
2018-11-29T02:36:12.747Z,30.00
2018-11-29T02:38:41.137Z,28.37
2018-11-29T02:41:09.398Z,26.70
2018-11-29T02:43:37.625Z,28.50
2018-11-29T02:46:06.091Z,27.67
2018-11-29T02:48:34.361Z,26.50
2018-11-29T02:51:02.557Z,26.57
2018-11-29T02:53:30.781Z,28.77
2018-11-29T02:55:59.053Z,31.17
2018-11-29T02:58:27.278Z,31.87
2018-11-29T03:00:55.490Z,29.90
2018-11-29T03:03:23.724Z,30.00
2018-11-29T03:05:51.914Z,31.03
2018-11-29T03:08:20.132Z,29.83
2018-11-29T03:10:48.432Z,25.80
2018-11-29T03:13:16.644Z,24.97
2018-11-29T03:15:44.918Z,27.57
2018-11-29T03:18:13.160Z,27.33
2018-11-29T03:20:41.475Z,25.63
2018-11-29T03:23:09.714Z,29.83
2018-11-29T03:25:37.961Z,27.37
2018-11-29T03:28:06.589Z,24.17
2018-11-29T03:30:34.848Z,27.83
2018-11-29T03:33:03.226Z,30.03
2018-11-29T03:35:31.501Z,25.23
2018-11-29T03:37:59.800Z,29.63
2018-11-29T03:40:28.080Z,29.63
2018-11-29T03:42:56.597Z,28.27
2018-11-29T03:45:24.835Z,27.13
2018-11-29T03:47:53.078Z,28.20
2018-11-29T03:50:21.343Z,29.70
2018-11-29T03:52:49.567Z,25.87
2018-11-29T03:55:17.875Z,30.00
2018-11-29T03:57:46.119Z,27.43
2018-11-29T04:00:17.950Z,25.13
2018-11-29T04:02:47.204Z,29.40
2018-11-29T04:05:15.457Z,30.13
2018-11-29T04:07:43.702Z,30.27
2018-11-29T04:10:12.930Z,28.27
2018-11-29T04:12:41.410Z,30.13
2018-11-29T04:15:10.985Z,27.03
2018-11-29T04:17:40.841Z,28.03
2018-11-29T04:20:10.299Z,32.30
2018-11-29T04:22:38.568Z,28.43
2018-11-29T04:25:08.166Z,29.27
2018-11-29T04:27:36.478Z,29.07
2018-11-29T04:30:05.802Z,32.23
2018-11-29T04:32:34.026Z,27.93
2018-11-29T04:35:02.329Z,28.73
2018-11-29T04:37:30.688Z,29.30
2018-11-29T04:39:58.971Z,31.07
2018-11-29T04:42:27.180Z,29.33
2018-11-29T04:44:55.436Z,28.57
2018-11-29T04:47:23.671Z,28.07
2018-11-29T04:49:51.965Z,27.47
2018-11-29T04:52:20.183Z,28.63
2018-11-29T04:54:48.439Z,27.93
2018-11-29T04:57:16.647Z,30.17
2018-11-29T04:59:44.875Z,27.43
2018-11-29T05:02:13.147Z,24.67
2018-11-29T05:04:41.399Z,28.20
2018-11-29T05:07:09.726Z,28.17
2018-11-29T05:09:37.919Z,25.87
2018-11-29T05:12:06.151Z,25.80
2018-11-29T05:14:34.374Z,30.00
2018-11-29T05:17:02.606Z,25.10
2018-11-29T05:19:30.924Z,26.27
2018-11-29T05:21:59.167Z,29.23
2018-11-29T05:24:27.377Z,25.20
2018-11-29T05:26:55.649Z,27.03
2018-11-29T05:29:23.902Z,26.37
2018-11-29T05:31:52.234Z,27.33
2018-11-29T05:34:20.467Z,27.37
2018-11-29T05:36:48.811Z,28.43
2018-11-29T05:39:17.031Z,24.00
2018-11-29T05:41:45.293Z,26.43
2018-11-29T05:44:13.538Z,28.43
2018-11-29T05:46:42.679Z,31.70
2018-11-29T05:49:10.096Z,28.43
2018-11-29T05:51:38.462Z,28.17
2018-11-29T05:54:06.779Z,30.83
2018-11-29T05:56:35.068Z,27.40
2018-11-29T05:59:03.315Z,27.50
2018-11-29T06:01:34.158Z,30.87
2018-11-29T06:04:02.619Z,29.23
2018-11-29T06:06:30.912Z,32.70
2018-11-29T06:08:59.154Z,30.63
2018-11-29T06:11:27.451Z,30.37
2018-11-29T06:13:55.715Z,34.40
2018-11-29T06:16:23.935Z,31.40
2018-11-29T06:18:52.203Z,32.90
2018-11-29T06:21:20.573Z,31.80
2018-11-29T06:23:48.842Z,30.80
2018-11-29T06:26:17.200Z,32.63
2018-11-29T06:28:45.406Z,34.77
2018-11-29T06:31:13.691Z,29.90
2018-11-29T06:33:41.929Z,32.93
2018-11-29T06:36:10.139Z,30.40
2018-11-29T06:38:38.450Z,32.97
2018-11-29T06:41:06.785Z,34.33
2018-11-29T06:43:35.987Z,32.50
2018-11-29T06:46:04.328Z,30.83
2018-11-29T06:48:32.614Z,34.17
2018-11-29T06:51:00.808Z,34.80
2018-11-29T06:53:34.495Z,31.70
2018-11-29T06:56:02.699Z,31.77
2018-11-29T06:58:30.944Z,34.37
2018-11-29T07:00:59.205Z,33.17
2018-11-29T07:03:28.937Z,32.13
2018-11-29T07:05:55.636Z,32.63
2018-11-29T07:08:23.830Z,34.27
2018-11-29T07:10:52.050Z,34.77
2018-11-29T07:13:20.294Z,30.50
2018-11-29T07:15:48.570Z,35.03
2018-11-29T07:18:16.847Z,32.23
2018-11-29T07:20:55.159Z,30.00
2018-11-29T07:23:23.433Z,32.50
2018-11-29T07:25:51.714Z,32.07
2018-11-29T07:28:19.989Z,30.90
2018-11-29T07:30:48.234Z,35.70
2018-11-29T07:33:16.454Z,31.23
2018-11-29T07:35:44.731Z,30.53
2018-11-29T07:38:12.956Z,31.83
2018-11-29T07:40:41.164Z,32.07
2018-11-29T07:43:09.462Z,31.40
2018-11-29T07:45:37.742Z,33.80
2018-11-29T07:48:06.018Z,33.53
2018-11-29T07:50:34.250Z,35.30
2018-11-29T07:53:02.531Z,34.07
2018-11-29T07:55:30.784Z,34.33
2018-11-29T07:57:59.016Z,30.80
2018-11-29T08:00:27.804Z,34.23
2018-11-29T08:02:56.039Z,30.60
2018-11-29T08:05:24.217Z,30.50
2018-11-29T08:07:52.436Z,36.73
2018-11-29T08:10:21.260Z,31.67
2018-11-29T08:12:49.652Z,29.10
2018-11-29T08:15:19.195Z,30.30
2018-11-29T08:17:47.629Z,30.53
2018-11-29T08:20:18.130Z,26.87
2018-11-29T08:22:46.354Z,28.30
2018-11-29T08:25:14.557Z,29.40
2018-11-29T08:27:42.819Z,26.23
2018-11-29T08:30:12.980Z,26.37
2018-11-29T08:32:41.344Z,27.33
2018-11-29T08:35:10.940Z,27.33
2018-11-29T08:37:39.899Z,28.53
2018-11-29T08:40:10.674Z,26.80
2018-11-29T08:42:38.849Z,29.07
2018-11-29T08:45:09.478Z,31.77
2018-11-29T08:47:37.695Z,29.63
2018-11-29T08:50:07.968Z,30.43
2018-11-29T08:52:36.326Z,30.87
2018-11-29T08:55:05.046Z,27.73
2018-11-29T08:57:33.239Z,29.37
2018-11-29T09:00:01.439Z,29.80
2018-11-29T09:02:29.641Z,30.97
2018-11-29T09:04:57.840Z,30.83
2018-11-29T09:07:26.055Z,33.23
2018-11-29T09:09:54.231Z,31.03
2018-11-29T09:12:22.423Z,29.50
2018-11-29T09:14:50.627Z,28.23
2018-11-29T09:17:18.862Z,27.67
2018-11-29T09:19:47.059Z,27.57
2018-11-29T09:22:15.325Z,26.90
2018-11-29T09:24:43.543Z,26.60
2018-11-29T09:27:11.766Z,28.77
2018-11-29T09:29:39.961Z,29.07
2018-11-29T09:32:08.139Z,27.73
2018-11-29T09:34:36.459Z,29.23
2018-11-29T09:37:04.687Z,28.53
2018-11-29T09:39:32.941Z,27.57
2018-11-29T09:42:01.155Z,28.40
2018-11-29T09:44:29.430Z,27.40
2018-11-29T09:47:04.362Z,27.23
2018-11-29T09:49:32.595Z,30.33
2018-11-29T09:52:00.803Z,20.50
2018-11-29T09:54:28.990Z,21.70
2018-11-29T09:56:57.161Z,21.27
2018-11-29T09:59:25.387Z,22.20
2018-11-29T10:01:54.079Z,23.47
2018-11-29T10:04:22.369Z,19.43
2018-11-29T10:06:50.559Z,21.83
2018-11-29T10:09:18.774Z,22.60
2018-11-29T10:11:47.014Z,19.60
2018-11-29T10:14:15.227Z,19.67
2018-11-29T10:16:43.531Z,21.33
2018-11-29T10:19:11.757Z,23.17
2018-11-29T10:21:39.998Z,21.77
2018-11-29T10:24:08.209Z,20.87
2018-11-29T10:26:36.434Z,19.93
2018-11-29T10:29:04.780Z,18.80
2018-11-29T10:31:32.983Z,21.00
2018-11-29T10:34:01.174Z,19.60
2018-11-29T10:36:29.374Z,21.77
2018-11-29T10:38:57.600Z,19.57
2018-11-29T10:41:25.859Z,19.97
2018-11-29T10:43:54.189Z,21.67
2018-11-29T10:46:22.395Z,21.67
2018-11-29T10:48:50.763Z,23.10
2018-11-29T10:51:18.998Z,22.53
2018-11-29T10:53:47.208Z,44.40
2018-11-29T10:56:15.472Z,30.27
2018-11-29T10:58:43.723Z,27.47
2018-11-29T11:01:17.268Z,21.30
2018-11-29T11:03:45.485Z,20.27
2018-11-29T11:06:19.241Z,23.32
2018-11-29T11:08:47.503Z,19.20
2018-11-29T11:11:15.792Z,17.20
2018-11-29T11:13:44.089Z,19.27
2018-11-29T11:16:12.466Z,20.43
2018-11-29T11:18:40.724Z,21.37
2018-11-29T11:21:08.970Z,22.87
2018-11-29T11:23:37.184Z,20.53
2018-11-29T11:26:05.804Z,21.80
2018-11-29T11:28:34.023Z,22.10
2018-11-29T11:31:02.255Z,20.60
2018-11-29T11:33:30.495Z,22.33
2018-11-29T11:35:58.759Z,19.67
2018-11-29T11:38:27.034Z,20.53
2018-11-29T11:40:55.261Z,20.93
2018-11-29T11:43:23.566Z,22.17
2018-11-29T11:45:51.864Z,19.70
2018-11-29T11:48:20.117Z,20.37
2018-11-29T11:50:48.419Z,22.53
2018-11-29T11:53:16.664Z,21.20
2018-11-29T11:55:44.868Z,20.47
2018-11-29T11:58:13.121Z,21.47
2018-11-29T12:00:41.464Z,21.33
2018-11-29T12:03:14.191Z,20.37
2018-11-29T12:05:42.446Z,24.63
2018-11-29T12:08:10.758Z,25.17
2018-11-29T12:10:40.271Z,25.13
2018-11-29T12:13:08.587Z,29.97
2018-11-29T12:15:37.598Z,29.83
2018-11-29T12:18:07.656Z,30.40
2018-11-29T12:20:35.957Z,31.07
2018-11-29T12:23:04.187Z,28.77
2018-11-29T12:25:32.456Z,33.40
2018-11-29T12:28:00.654Z,24.67
2018-11-29T12:30:31.566Z,21.77
2018-11-29T12:33:01.387Z,18.97
2018-11-29T12:35:29.655Z,19.60
2018-11-29T12:37:58.123Z,18.30
2018-11-29T12:40:26.342Z,19.53
2018-11-29T12:42:54.615Z,18.47
2018-11-29T12:45:22.890Z,18.87
2018-11-29T12:47:51.183Z,18.60
2018-11-29T12:50:21.187Z,17.97
2018-11-29T12:55:52.564Z,19.10
2018-11-29T12:58:20.823Z,18.53
2018-11-29T13:00:49.068Z,18.73
2018-11-29T13:03:17.267Z,19.10
2018-11-29T13:05:45.506Z,19.03
2018-11-29T13:08:13.710Z,16.10
2018-11-29T13:10:41.993Z,17.00
2018-11-29T13:13:10.247Z,14.60
2018-11-29T13:15:38.471Z,17.17
2018-11-29T13:18:07.939Z,17.83
2018-11-29T13:20:36.334Z,16.77
2018-11-29T13:23:04.581Z,17.47
2018-11-29T13:25:32.857Z,16.03
2018-11-29T13:28:01.129Z,15.70
2018-11-29T13:30:29.346Z,18.10
2018-11-29T13:32:57.621Z,13.87
2018-11-29T13:35:40.382Z,17.83
2018-11-29T13:38:13.618Z,15.63
2018-11-29T13:40:43.469Z,15.17
2018-11-29T13:43:11.682Z,16.53
2018-11-29T13:45:39.878Z,15.17
2018-11-29T13:48:09.595Z,15.53
2018-11-29T13:50:38.339Z,16.10
2018-11-29T13:53:06.560Z,16.33
2018-11-29T13:55:34.863Z,16.30
2018-11-29T13:58:03.116Z,15.43
2018-11-29T14:00:31.504Z,15.23
2018-11-29T14:03:01.578Z,16.73
2018-11-29T14:05:29.989Z,16.53
2018-11-29T14:07:58.472Z,12.80
2018-11-29T14:10:26.865Z,15.97
2018-11-29T14:12:55.651Z,16.27
2018-11-29T14:15:27.408Z,17.07
2018-11-29T14:17:55.747Z,15.63
2018-11-29T14:20:24.013Z,16.83
2018-11-29T14:22:52.222Z,15.33
2018-11-29T14:25:20.465Z,15.23
2018-11-29T14:27:51.744Z,13.33
2018-11-29T14:30:21.060Z,14.77
2018-11-29T14:32:52.381Z,15.20
2018-11-29T14:35:20.653Z,15.77
2018-11-29T14:37:48.900Z,14.00
2018-11-29T14:40:18.144Z,14.00
2018-11-29T14:42:46.419Z,18.20
2018-11-29T14:45:15.813Z,16.27
2018-11-29T14:47:44.072Z,20.30
2018-11-29T14:50:44.736Z,19.33
2018-11-29T14:53:13.187Z,17.10
2018-11-29T14:55:41.808Z,17.60
2018-11-29T14:58:11.616Z,17.93
2018-11-29T15:00:40.032Z,16.10
2018-11-29T15:03:09.919Z,16.87
2018-11-29T15:05:38.436Z,15.90
2018-11-29T15:08:08.598Z,14.90
2018-11-29T15:10:37.396Z,16.50
2018-11-29T15:13:07.516Z,17.87
2018-11-29T15:15:36.348Z,14.80
2018-11-29T15:18:04.820Z,19.20
2018-11-29T15:20:36.041Z,17.73
2018-11-29T15:23:04.512Z,17.17
2018-11-29T15:25:33.213Z,19.27
2018-11-29T15:28:01.373Z,21.03
2018-11-29T15:30:29.830Z,17.73
2018-11-29T15:32:58.384Z,17.23
2018-11-29T15:35:26.824Z,15.67
2018-11-29T15:37:55.241Z,16.47
2018-11-29T15:40:23.664Z,15.57
2018-11-29T15:42:52.207Z,15.70
2018-11-29T15:45:21.844Z,14.70
2018-11-29T15:47:50.243Z,19.13
2018-11-29T15:50:18.745Z,16.60
2018-11-29T15:52:47.096Z,16.50
2018-11-29T15:55:20.192Z,16.60
2018-11-29T15:57:49.548Z,15.23
2018-11-29T16:00:20.016Z,19.47
2018-11-29T16:02:48.905Z,20.37
2018-11-29T16:05:17.379Z,21.37
2018-11-29T16:07:45.864Z,19.90
2018-11-29T16:10:15.707Z,19.23
2018-11-29T16:12:44.080Z,21.60
2018-11-29T16:15:14.457Z,16.83
2018-11-29T16:17:43.272Z,13.70
2018-11-29T16:20:13.202Z,16.13
2018-11-29T16:22:41.688Z,17.27
2018-11-29T16:25:11.281Z,16.53
2018-11-29T16:27:39.745Z,14.43
2018-11-29T16:30:14.325Z,14.00
2018-11-29T16:32:42.823Z,14.60
2018-11-29T16:35:11.201Z,15.13
2018-11-29T16:37:39.658Z,19.20
2018-11-29T16:40:09.102Z,21.37
2018-11-29T16:42:37.616Z,19.47
2018-11-29T16:45:09.336Z,68.63
2018-11-29T16:47:37.941Z,17.37
2018-11-29T16:50:08.591Z,23.13
2018-11-29T16:52:37.370Z,67.90
2018-11-29T16:55:07.365Z,15.40
2018-11-29T16:57:36.052Z,24.60
2018-11-29T17:00:08.561Z,23.23
2018-11-29T17:02:37.128Z,23.10
2018-11-29T17:05:06.203Z,18.47
2018-11-29T17:07:34.669Z,16.33
2018-11-29T17:10:03.302Z,16.20
2018-11-29T17:12:31.781Z,16.03
2018-11-29T17:15:00.418Z,25.33
2018-11-29T17:17:28.932Z,17.23
2018-11-29T17:19:57.484Z,22.57
2018-11-29T17:22:25.891Z,19.73
2018-11-29T17:24:54.461Z,32.33
2018-11-29T17:27:22.843Z,17.53
2018-11-29T17:29:51.381Z,21.00
2018-11-29T17:32:19.938Z,19.13
2018-11-29T17:34:48.398Z,22.00
2018-11-29T17:37:16.787Z,18.57
2018-11-29T17:39:45.181Z,17.30
2018-11-29T17:42:13.644Z,24.60
2018-11-29T17:44:42.230Z,13.93
2018-11-29T17:47:10.586Z,14.13
2018-11-29T17:49:39.044Z,15.70
2018-11-29T17:52:07.465Z,12.20
2018-11-29T17:54:36.129Z,14.67
2018-11-29T17:57:04.554Z,14.57
2018-11-29T17:59:32.933Z,14.20
2018-11-29T18:02:01.375Z,14.13
2018-11-29T18:04:29.883Z,44.77
2018-11-29T18:06:58.170Z,14.63
2018-11-29T18:09:26.626Z,18.80
2018-11-29T18:11:54.922Z,13.63
2018-11-29T18:14:23.278Z,14.37
2018-11-29T18:16:51.673Z,16.57
2018-11-29T18:19:20.106Z,13.93
2018-11-29T18:21:48.575Z,16.73
2018-11-29T18:24:16.996Z,15.57
2018-11-29T18:26:45.373Z,15.00
2018-11-29T18:29:13.749Z,17.10
2018-11-29T18:31:42.202Z,18.83
2018-11-29T18:34:10.538Z,16.77
2018-11-29T18:36:38.901Z,14.03
2018-11-29T18:39:08.951Z,12.23
2018-11-29T18:41:37.414Z,16.10
2018-11-29T18:44:06.533Z,20.07
2018-11-29T18:46:34.882Z,27.73
2018-11-29T18:49:03.347Z,22.83
2018-11-29T18:51:31.734Z,25.80
2018-11-29T18:54:00.233Z,21.00
2018-11-29T18:56:28.630Z,23.17
2018-11-29T18:58:57.008Z,19.87
2018-11-29T19:01:25.453Z,22.67
2018-11-29T19:03:53.787Z,22.50
2018-11-29T19:06:22.274Z,23.57
2018-11-29T19:08:50.572Z,20.83
2018-11-29T19:11:19.059Z,23.73
2018-11-29T19:13:47.355Z,20.27
2018-11-29T19:16:16.000Z,19.10
2018-11-29T19:18:44.404Z,19.53
2018-11-29T19:21:12.785Z,20.63
2018-11-29T19:23:41.240Z,24.77
2018-11-29T19:26:09.713Z,19.10
2018-11-29T19:28:38.088Z,20.07
2018-11-29T19:31:06.482Z,21.23
2018-11-29T19:33:34.877Z,17.60
2018-11-29T19:36:05.061Z,19.37
2018-11-29T19:38:33.387Z,20.83
2018-11-29T19:41:01.737Z,18.73
2018-11-29T19:43:30.123Z,19.07
2018-11-29T19:45:58.609Z,16.77
2018-11-29T19:48:26.936Z,22.37
2018-11-29T19:50:55.366Z,17.00
2018-11-29T19:53:25.043Z,17.43
2018-11-29T19:55:56.340Z,17.70
2018-11-29T19:58:24.804Z,15.40
2018-11-29T20:00:53.268Z,16.10
2018-11-29T20:03:21.636Z,17.93
2018-11-29T20:05:49.992Z,23.30
2018-11-29T20:08:18.371Z,42.03
2018-11-29T20:10:46.862Z,37.87
2018-11-29T20:13:15.708Z,46.77
2018-11-29T20:15:47.760Z,21.67
2018-11-29T20:18:16.075Z,16.40
2018-11-29T20:20:44.485Z,19.77
2018-11-29T20:23:13.211Z,21.20
2018-11-29T20:25:43.831Z,22.73
2018-11-29T20:28:12.287Z,20.73
2018-11-29T20:30:40.689Z,20.57
2018-11-29T20:33:09.069Z,18.23
2018-11-29T20:35:37.445Z,17.70
2018-11-29T20:38:06.552Z,17.30
2018-11-29T20:40:37.708Z,17.80
2018-11-29T20:43:06.357Z,15.40
2018-11-29T20:45:42.225Z,16.50
2018-11-29T20:48:20.111Z,21.20
2018-11-29T20:50:48.908Z,21.00
2018-11-29T20:53:20.330Z,26.50
2018-11-29T20:55:48.744Z,28.40
2018-11-29T20:58:17.195Z,32.00
2018-11-29T21:00:45.623Z,29.07
2018-11-29T21:03:14.005Z,23.97
2018-11-29T21:05:43.075Z,27.27
2018-11-29T21:08:12.078Z,24.37
2018-11-29T21:10:40.476Z,23.43
2018-11-29T21:13:08.935Z,28.90
2018-11-29T21:15:39.269Z,23.10
2018-11-29T21:18:10.013Z,25.10
2018-11-29T21:20:39.635Z,21.23
2018-11-29T21:23:09.517Z,16.23
2018-11-29T21:25:37.875Z,28.67
2018-11-29T21:28:06.991Z,25.17
2018-11-29T21:30:35.506Z,24.97
2018-11-29T21:33:04.333Z,53.90
2018-11-29T21:35:32.641Z,27.50
2018-11-29T21:38:05.172Z,21.93
2018-11-29T21:40:33.387Z,28.37
2018-11-29T21:43:01.637Z,21.70
2018-11-29T21:45:29.839Z,23.17
2018-11-29T21:47:58.080Z,24.43
2018-11-29T21:50:26.282Z,16.70
2018-11-29T21:52:54.481Z,18.57
2018-11-29T21:55:22.704Z,17.67
2018-11-29T21:57:51.313Z,18.80
2018-11-29T22:00:20.899Z,15.60
2018-11-29T22:02:50.631Z,23.13
2018-11-29T22:05:18.831Z,15.57
2018-11-29T22:07:47.063Z,21.00
2018-11-29T22:10:15.265Z,18.27
2018-11-29T22:12:43.540Z,19.63
2018-11-29T22:15:12.223Z,16.93
2018-11-29T22:17:50.783Z,12.50
2018-11-29T22:20:18.999Z,13.83
2018-11-29T22:22:47.225Z,24.90
2018-11-29T22:25:15.444Z,12.10
2018-11-29T22:27:43.641Z,13.77
2018-11-29T22:30:11.901Z,11.93
2018-11-29T22:32:40.247Z,11.93
2018-11-29T22:35:09.069Z,12.10
2018-11-29T22:37:37.655Z,11.13
2018-11-29T22:40:06.703Z,10.17
2018-11-29T22:42:34.930Z,10.77
2018-11-29T22:45:03.185Z,16.30
2018-11-29T22:47:31.367Z,14.53
2018-11-29T22:49:59.563Z,11.30
2018-11-29T22:52:27.807Z,12.77
2018-11-29T22:54:56.031Z,7.83
2018-11-29T22:57:24.282Z,9.90
2018-11-29T22:59:52.527Z,9.30
2018-11-29T23:02:20.740Z,11.30
2018-11-29T23:04:48.984Z,10.53
2018-11-29T23:07:17.192Z,8.67
2018-11-29T23:09:45.405Z,10.87
2018-11-29T23:12:13.715Z,14.10
2018-11-29T23:14:41.952Z,10.03
2018-11-29T23:17:10.161Z,10.33
2018-11-29T23:19:38.338Z,12.40
2018-11-29T23:22:06.526Z,12.23
2018-11-29T23:24:34.797Z,11.10
2018-11-29T23:27:03.708Z,12.97
2018-11-29T23:29:31.932Z,11.83
2018-11-29T23:32:00.137Z,10.47
2018-11-29T23:34:28.411Z,9.43
2018-11-29T23:36:56.608Z,10.20
2018-11-29T23:39:24.850Z,9.83
2018-11-29T23:41:53.056Z,11.10
2018-11-29T23:44:21.273Z,11.40
2018-11-29T23:46:49.508Z,11.17
2018-11-29T23:49:17.720Z,10.47
2018-11-29T23:51:45.973Z,9.70
2018-11-29T23:54:14.203Z,12.40
2018-11-29T23:56:42.427Z,9.37
2018-11-29T23:59:10.655Z,11.47
